createdAt,value
2022-09-06T00:00:31.924Z,0.90
2022-09-06T00:03:01.137Z,0.90
2022-09-06T00:05:30.803Z,0.90
2022-09-06T00:08:00.339Z,0.80
2022-09-06T00:10:29.365Z,0.87
2022-09-06T00:13:00.943Z,1.00
2022-09-06T00:15:31.003Z,1.20
2022-09-06T00:18:04.114Z,1.07
2022-09-06T00:20:34.624Z,1.30
2022-09-06T00:23:04.723Z,1.02
2022-09-06T00:25:33.742Z,1.40
2022-09-06T00:28:04.841Z,1.20
2022-09-06T00:30:35.099Z,1.20
2022-09-06T00:33:03.539Z,1.20
2022-09-06T00:35:31.954Z,1.13
2022-09-06T00:38:01.669Z,1.10
2022-09-06T00:40:31.562Z,1.33
2022-09-06T00:43:00.044Z,1.13
2022-09-06T00:45:30.618Z,1.15
2022-09-06T00:48:03.135Z,1.10
2022-09-06T00:50:31.785Z,0.98
2022-09-06T00:53:00.874Z,0.90
2022-09-06T00:55:29.601Z,1.00
2022-09-06T00:57:58.422Z,0.83
2022-09-06T01:00:27.055Z,1.00
2022-09-06T01:02:55.801Z,1.00
2022-09-06T01:05:44.945Z,1.08
2022-09-06T01:08:22.729Z,1.10
2022-09-06T01:11:15.243Z,1.00
2022-09-06T01:13:53.164Z,1.00
2022-09-06T01:16:31.627Z,0.85
2022-09-06T01:19:31.594Z,0.90
2022-09-06T01:22:15.507Z,1.00
2022-09-06T01:25:03.493Z,1.00
2022-09-06T01:28:01.235Z,1.00
2022-09-06T01:30:31.594Z,0.70
2022-09-06T01:33:10.503Z,0.80
2022-09-06T01:35:45.450Z,0.90
2022-09-06T01:38:15.489Z,0.90
2022-09-06T01:40:44.229Z,0.87
2022-09-06T01:43:19.895Z,0.57
2022-09-06T01:45:59.387Z,0.90
2022-09-06T01:48:38.775Z,0.80
2022-09-06T01:51:16.155Z,1.00
2022-09-06T01:54:01.058Z,0.70
2022-09-06T01:56:40.428Z,0.70
2022-09-06T01:59:33.731Z,0.80
2022-09-06T02:02:07.356Z,1.00
2022-09-06T02:04:43.751Z,0.80
2022-09-06T02:07:17.903Z,0.75
2022-09-06T02:09:50.592Z,0.82
2022-09-06T02:12:22.106Z,0.80
2022-09-06T02:14:56.631Z,0.70
2022-09-06T02:17:31.499Z,0.73
2022-09-06T02:20:04.336Z,0.70
2022-09-06T02:22:37.708Z,0.70
2022-09-06T02:25:11.965Z,0.80
2022-09-06T02:27:41.083Z,0.83
2022-09-06T02:30:12.311Z,0.70
2022-09-06T02:32:49.129Z,0.80
2022-09-06T02:35:18.831Z,0.85
2022-09-06T02:37:47.580Z,0.90
2022-09-06T02:40:16.271Z,0.80
2022-09-06T02:42:45.015Z,0.70
2022-09-06T02:45:15.353Z,0.70
2022-09-06T02:47:44.110Z,0.90
2022-09-06T02:50:13.302Z,0.80
2022-09-06T02:52:41.913Z,0.70
2022-09-06T02:55:11.285Z,0.75
2022-09-06T02:57:39.836Z,0.90
2022-09-06T03:00:09.328Z,0.70
2022-09-06T03:02:39.305Z,0.90
2022-09-06T03:05:08.761Z,1.00
2022-09-06T03:07:37.307Z,0.80
2022-09-06T03:10:06.479Z,0.90
2022-09-06T03:12:35.046Z,0.90
2022-09-06T03:15:03.682Z,0.85
2022-09-06T03:17:32.358Z,1.08
2022-09-06T03:20:02.337Z,1.10
2022-09-06T03:22:31.147Z,1.15
2022-09-06T03:24:59.753Z,1.30
2022-09-06T03:27:28.434Z,1.17
2022-09-06T03:29:56.975Z,1.37
2022-09-06T03:32:25.968Z,1.35
2022-09-06T03:34:54.537Z,1.25
2022-09-06T03:37:24.579Z,1.10
2022-09-06T03:39:53.234Z,1.05
2022-09-06T03:42:22.417Z,0.88
2022-09-06T03:44:50.953Z,0.95
2022-09-06T03:47:19.843Z,1.10
2022-09-06T03:49:48.677Z,1.30
2022-09-06T03:52:17.418Z,1.10
2022-09-06T03:54:47.304Z,1.30
2022-09-06T03:57:15.891Z,1.10
2022-09-06T03:59:44.452Z,1.40
2022-09-06T04:02:13.193Z,1.10
2022-09-06T04:04:41.779Z,0.90
2022-09-06T04:07:10.424Z,1.33
2022-09-06T04:09:38.994Z,1.10
2022-09-06T04:12:09.242Z,1.30
2022-09-06T04:14:37.796Z,1.60
2022-09-06T04:17:06.567Z,1.13
2022-09-06T04:19:35.140Z,1.10
2022-09-06T04:22:03.745Z,1.40
2022-09-06T04:24:32.294Z,1.25
2022-09-06T04:27:00.938Z,1.38
2022-09-06T04:29:30.906Z,1.40
2022-09-06T04:31:59.259Z,1.40
2022-09-06T04:34:27.613Z,1.10
2022-09-06T04:36:56.142Z,1.30
2022-09-06T04:39:24.651Z,1.38
2022-09-06T04:41:53.025Z,1.73
2022-09-06T04:44:21.331Z,1.40
2022-09-06T04:46:51.012Z,1.40
2022-09-06T04:49:19.300Z,1.30
2022-09-06T04:51:47.619Z,1.48
2022-09-06T04:54:15.860Z,1.50
2022-09-06T04:56:44.150Z,1.50
2022-09-06T04:59:12.427Z,1.20
2022-09-06T05:01:40.725Z,1.50
2022-09-06T05:04:10.354Z,1.50
2022-09-06T05:06:39.353Z,1.90
2022-09-06T05:09:07.648Z,1.40
2022-09-06T05:11:36.254Z,1.50
2022-09-06T05:14:04.850Z,1.40
2022-09-06T05:16:33.226Z,1.30
2022-09-06T05:19:01.568Z,1.40
2022-09-06T05:21:31.258Z,1.38
2022-09-06T05:23:59.525Z,1.38
2022-09-06T05:26:27.819Z,1.75
2022-09-06T05:28:56.090Z,1.35
2022-09-06T05:31:29.567Z,1.60
2022-09-06T05:33:59.392Z,1.63
2022-09-06T05:36:30.647Z,1.83
2022-09-06T05:39:00.299Z,1.60
2022-09-06T05:41:28.992Z,1.50
2022-09-06T05:43:57.298Z,1.80
2022-09-06T05:46:26.578Z,1.40
2022-09-06T05:48:56.105Z,1.60
2022-09-06T05:51:24.678Z,1.58
2022-09-06T05:53:54.532Z,1.60
2022-09-06T05:56:23.208Z,1.50
2022-09-06T05:58:51.583Z,1.60
2022-09-06T06:01:22.732Z,1.60
2022-09-06T06:03:57.096Z,1.90
2022-09-06T06:06:27.480Z,1.70
2022-09-06T06:08:57.460Z,1.50
2022-09-06T06:11:26.992Z,1.80
2022-09-06T06:13:55.765Z,1.50
2022-09-06T06:16:25.503Z,1.92
2022-09-06T06:18:53.845Z,1.60
2022-09-06T06:21:24.603Z,1.65
2022-09-06T06:23:56.903Z,1.70
2022-09-06T06:26:26.375Z,1.92
2022-09-06T06:28:55.580Z,1.50
2022-09-06T06:31:24.101Z,1.65
2022-09-06T06:33:53.049Z,1.50
2022-09-06T06:36:23.476Z,1.70
2022-09-06T06:38:55.312Z,1.60
2022-09-06T06:41:27.244Z,1.73
2022-09-06T06:43:56.569Z,1.85
2022-09-06T06:46:27.477Z,2.10
2022-09-06T06:48:56.510Z,1.50
2022-09-06T06:51:28.348Z,1.88
2022-09-06T06:53:57.891Z,1.63
2022-09-06T06:56:30.302Z,1.60
2022-09-06T06:59:00.924Z,1.90
2022-09-06T07:01:33.523Z,1.67
2022-09-06T07:04:02.794Z,1.50
2022-09-06T07:09:21.487Z,1.45
2022-09-06T07:11:51.708Z,1.65
2022-09-06T07:14:20.332Z,1.30
2022-09-06T07:16:49.413Z,1.65
2022-09-06T07:22:09.372Z,1.40
2022-09-06T07:24:39.532Z,1.50
2022-09-06T07:29:58.095Z,1.33
2022-09-06T07:32:26.795Z,0.93
2022-09-06T07:34:55.339Z,1.20
2022-09-06T07:37:23.937Z,1.20
2022-09-06T07:39:52.597Z,1.20
2022-09-06T07:42:22.568Z,1.10
2022-09-06T07:44:51.167Z,1.00
2022-09-06T07:55:33.046Z,1.05
2022-09-06T07:58:03.102Z,1.15
2022-09-06T08:00:31.751Z,1.00
2022-09-06T08:03:00.405Z,0.80
2022-09-06T08:11:07.616Z,0.80
2022-09-06T08:13:38.352Z,0.80
2022-09-06T08:16:08.817Z,0.80
2022-09-06T08:18:38.224Z,0.88
2022-09-06T08:21:12.722Z,0.80
2022-09-06T08:23:43.756Z,0.93
2022-09-06T08:26:12.539Z,0.80
2022-09-06T08:28:42.615Z,0.87
2022-09-06T08:31:12.949Z,0.90
2022-09-06T08:33:42.604Z,1.10
2022-09-06T08:36:12.483Z,1.05
2022-09-06T08:38:41.280Z,0.90
2022-09-06T08:41:13.311Z,0.90
2022-09-06T08:46:43.291Z,0.88
2022-09-06T08:49:12.670Z,0.82
2022-09-06T08:52:12.112Z,0.87
2022-09-06T08:54:47.731Z,1.00
2022-09-06T08:57:28.323Z,0.70
2022-09-06T09:00:03.727Z,0.90
2022-09-06T09:02:43.860Z,0.88
2022-09-06T09:05:22.067Z,0.80
2022-09-06T09:08:03.153Z,1.00
2022-09-06T09:10:37.507Z,0.93
2022-09-06T09:13:08.615Z,0.88
2022-09-06T09:15:40.580Z,0.90
2022-09-06T09:18:09.545Z,0.70
2022-09-06T09:20:39.884Z,0.80
2022-09-06T09:23:08.455Z,0.70
2022-09-06T09:25:40.338Z,0.73
2022-09-06T09:28:18.563Z,0.50
2022-09-06T09:30:51.086Z,0.50
2022-09-06T09:33:36.790Z,0.60
2022-09-06T09:36:10.991Z,0.50
2022-09-06T09:38:44.297Z,0.80
2022-09-06T09:41:26.012Z,0.77
2022-09-06T09:44:03.817Z,0.50
2022-09-06T09:46:36.734Z,0.60
2022-09-06T09:49:09.587Z,0.50
2022-09-06T09:51:40.405Z,0.70
2022-09-06T09:54:10.740Z,0.60
2022-09-06T09:56:44.683Z,0.63
2022-09-06T09:59:26.408Z,0.50
2022-09-06T10:02:00.115Z,0.50
2022-09-06T10:07:13.148Z,0.50
2022-09-06T10:09:43.864Z,0.68
2022-09-06T10:12:19.491Z,0.40
2022-09-06T10:14:50.279Z,0.50
2022-09-06T10:17:32.032Z,0.60
2022-09-06T10:20:05.242Z,0.70
2022-09-06T10:22:39.991Z,0.60
2022-09-06T10:25:37.718Z,0.27
2022-09-06T10:28:29.238Z,0.40
2022-09-06T10:31:34.374Z,0.60
2022-09-06T10:34:31.521Z,0.77
2022-09-06T10:37:16.980Z,0.70
2022-09-06T10:39:56.068Z,0.50
2022-09-06T10:42:34.854Z,0.50
2022-09-06T10:45:21.627Z,0.70
2022-09-06T10:48:05.567Z,0.80
2022-09-06T10:50:46.884Z,0.80
2022-09-06T10:53:24.111Z,0.70
2022-09-06T10:56:02.507Z,0.85
2022-09-06T11:01:32.485Z,0.30
2022-09-06T11:04:06.834Z,0.63
2022-09-06T11:06:46.582Z,0.40
2022-09-06T11:09:23.906Z,0.30
2022-09-06T11:11:59.042Z,0.40
2022-09-06T11:14:30.072Z,0.50
2022-09-06T11:17:04.999Z,0.40
2022-09-06T11:19:39.449Z,0.50
2022-09-06T11:22:44.805Z,0.50
2022-09-06T11:25:54.481Z,0.60
2022-09-06T11:28:31.010Z,0.60
2022-09-06T11:31:00.226Z,0.40
2022-09-06T11:33:31.501Z,0.70
2022-09-06T11:36:19.035Z,0.60
2022-09-06T11:38:57.960Z,0.60
2022-09-06T11:41:31.368Z,0.50
2022-09-06T11:44:00.135Z,0.60
2022-09-06T11:47:00.598Z,0.60
2022-09-06T11:49:44.032Z,0.60
2022-09-06T11:52:59.377Z,0.40
2022-09-06T11:55:38.855Z,0.50
2022-09-06T11:58:20.249Z,0.50
2022-09-06T12:01:27.463Z,0.70
2022-09-06T12:04:04.319Z,0.65
2022-09-06T12:06:37.940Z,0.60
2022-09-06T12:09:28.801Z,0.65
2022-09-06T12:11:59.888Z,0.60
2022-09-06T12:14:34.411Z,0.73
2022-09-06T12:17:27.709Z,0.80
2022-09-06T12:20:05.512Z,0.60
2022-09-06T12:22:55.627Z,0.70
2022-09-06T12:25:58.674Z,0.47
2022-09-06T12:28:51.540Z,0.80
2022-09-06T12:31:39.741Z,0.50
2022-09-06T12:34:12.638Z,0.60
2022-09-06T12:36:51.967Z,0.60
2022-09-06T12:39:22.222Z,0.65
2022-09-06T12:41:55.092Z,0.70
2022-09-06T12:44:33.618Z,0.73
2022-09-06T12:47:12.273Z,0.40
2022-09-06T12:49:40.823Z,0.32
2022-09-06T12:52:12.180Z,0.70
2022-09-06T12:54:46.747Z,0.60
2022-09-06T12:57:19.584Z,0.30
2022-09-06T12:59:57.744Z,0.40
2022-09-06T13:02:33.613Z,0.60
2022-09-06T13:05:06.498Z,0.60
2022-09-06T13:07:38.592Z,0.35
2022-09-06T13:10:07.525Z,0.30
2022-09-06T13:12:39.121Z,0.60
2022-09-06T13:15:12.907Z,0.63
2022-09-06T13:17:41.682Z,0.80
2022-09-06T13:20:15.552Z,0.60
2022-09-06T13:22:46.576Z,0.43
2022-09-06T13:25:20.691Z,0.50
2022-09-06T13:27:51.638Z,0.63
2022-09-06T13:30:41.963Z,0.80
2022-09-06T13:33:24.475Z,0.60
2022-09-06T13:36:05.874Z,0.50
2022-09-06T13:38:39.697Z,0.60
2022-09-06T13:41:28.966Z,0.50
2022-09-06T13:44:03.297Z,0.50
2022-09-06T13:46:33.321Z,0.43
2022-09-06T13:49:01.992Z,0.60
2022-09-06T13:51:30.776Z,0.30
2022-09-06T13:54:07.707Z,0.37
2022-09-06T13:56:36.553Z,0.60
2022-09-06T13:59:07.031Z,0.53
2022-09-06T14:01:35.676Z,0.50
2022-09-06T14:04:05.210Z,0.60
2022-09-06T14:06:36.977Z,0.40
2022-09-06T14:09:07.630Z,0.47
2022-09-06T14:11:37.244Z,0.30
2022-09-06T14:14:07.574Z,0.30
2022-09-06T14:16:36.157Z,0.43
2022-09-06T14:19:05.191Z,0.30
2022-09-06T14:21:33.908Z,0.30
2022-09-06T14:24:04.567Z,0.43
2022-09-06T14:26:34.031Z,0.70
2022-09-06T14:29:02.844Z,0.40
2022-09-06T14:31:33.565Z,0.30
2022-09-06T14:34:04.174Z,0.22
2022-09-06T14:36:34.599Z,0.30
2022-09-06T14:39:03.517Z,0.43
2022-09-06T14:41:32.271Z,0.20
2022-09-06T14:44:01.631Z,0.40
2022-09-06T14:46:32.010Z,0.30
2022-09-06T14:49:02.660Z,0.30
2022-09-06T14:51:31.779Z,0.30
2022-09-06T14:54:03.238Z,0.40
2022-09-06T14:56:31.835Z,0.28
2022-09-06T14:59:00.676Z,0.50
2022-09-06T15:01:35.757Z,0.20
2022-09-06T15:04:10.352Z,0.32
2022-09-06T15:06:41.133Z,0.40
2022-09-06T15:09:11.492Z,0.30
2022-09-06T15:11:43.151Z,0.40
2022-09-06T15:14:16.856Z,0.38
2022-09-06T15:16:46.162Z,0.20
2022-09-06T15:19:16.544Z,0.10
2022-09-06T15:21:46.855Z,0.20
2022-09-06T15:24:16.187Z,0.22
2022-09-06T15:26:45.159Z,0.25
2022-09-06T15:29:15.065Z,0.45
2022-09-06T15:31:50.168Z,0.20
2022-09-06T15:34:21.398Z,0.15
2022-09-06T15:36:50.645Z,0.40
2022-09-06T15:39:19.967Z,0.15
2022-09-06T15:41:51.586Z,0.30
2022-09-06T15:44:21.487Z,0.55
2022-09-06T15:46:52.057Z,0.50
2022-09-06T15:49:27.881Z,0.70
2022-09-06T15:51:58.193Z,0.28
2022-09-06T15:54:40.741Z,0.70
2022-09-06T15:57:09.340Z,0.70
2022-09-06T15:59:38.133Z,0.50
2022-09-06T16:02:06.840Z,0.35
2022-09-06T16:04:36.835Z,0.70
2022-09-06T16:07:05.668Z,1.05
2022-09-06T16:09:34.363Z,0.70
2022-09-06T16:12:02.985Z,0.30
2022-09-06T16:14:31.569Z,0.20
2022-09-06T16:17:00.230Z,0.63
2022-09-06T16:19:28.966Z,1.10
2022-09-06T16:21:59.537Z,1.02
2022-09-06T16:24:28.224Z,0.63
2022-09-06T16:26:56.857Z,0.40
2022-09-06T16:29:25.663Z,0.60
2022-09-06T16:31:59.608Z,0.30
2022-09-06T16:34:28.673Z,0.75
2022-09-06T16:36:58.611Z,0.80
2022-09-06T16:39:27.270Z,0.60
2022-09-06T16:41:55.868Z,0.63
2022-09-06T16:44:24.672Z,0.63
2022-09-06T16:46:53.761Z,0.50
2022-09-06T16:49:22.757Z,0.60
2022-09-06T16:51:52.300Z,0.50
2022-09-06T16:54:22.624Z,0.60
2022-09-06T16:56:51.179Z,0.70
2022-09-06T16:59:21.716Z,0.70
2022-09-06T17:01:51.593Z,0.50
2022-09-06T17:04:20.332Z,0.67
2022-09-06T17:06:49.164Z,0.70
2022-09-06T17:09:20.128Z,0.70
2022-09-06T17:11:50.590Z,0.57
2022-09-06T17:14:19.852Z,0.60
2022-09-06T17:17:05.248Z,0.60
2022-09-06T17:19:37.673Z,0.47
2022-09-06T17:22:06.760Z,0.50
2022-09-06T17:24:35.769Z,0.45
2022-09-06T17:27:06.434Z,0.63
2022-09-06T17:29:35.159Z,0.65
2022-09-06T17:32:09.896Z,0.60
2022-09-06T17:34:39.211Z,0.60
2022-09-06T17:37:07.886Z,0.70
2022-09-06T17:39:36.780Z,0.70
2022-09-06T17:42:07.549Z,0.63
2022-09-06T17:44:36.134Z,0.50
2022-09-06T17:47:13.662Z,0.50
2022-09-06T17:49:42.852Z,0.50
2022-09-06T17:52:11.973Z,0.60
2022-09-06T17:54:40.571Z,0.65
2022-09-06T17:57:10.501Z,0.90
2022-09-06T17:59:39.551Z,0.60
2022-09-06T18:02:08.428Z,0.70
2022-09-06T18:04:37.215Z,0.50
2022-09-06T18:07:05.947Z,0.30
2022-09-06T18:09:34.615Z,0.50
2022-09-06T18:12:03.413Z,0.50
2022-09-06T18:14:33.414Z,0.50
2022-09-06T18:17:02.039Z,0.70
2022-09-06T18:19:31.137Z,0.30
2022-09-06T18:21:59.687Z,0.60
2022-09-06T18:24:28.632Z,0.45
2022-09-06T18:26:57.172Z,0.50
2022-09-06T18:29:25.795Z,0.67
2022-09-06T18:31:57.255Z,0.57
2022-09-06T18:34:25.933Z,0.50
2022-09-06T18:36:54.479Z,0.60
2022-09-06T18:39:23.143Z,0.60
2022-09-06T18:42:01.029Z,0.67
2022-09-06T18:44:32.267Z,0.63
2022-09-06T18:47:05.627Z,0.52
2022-09-06T18:49:35.301Z,0.60
2022-09-06T18:52:04.934Z,0.60
2022-09-06T18:54:34.800Z,0.60
2022-09-06T18:57:03.390Z,0.90
2022-09-06T18:59:32.135Z,1.10
2022-09-06T19:02:02.184Z,0.88
2022-09-06T19:04:31.076Z,1.00
2022-09-06T19:07:02.005Z,0.90
2022-09-06T19:09:30.593Z,1.00
2022-09-06T19:11:59.154Z,0.70
2022-09-06T19:14:27.776Z,0.80
2022-09-06T19:16:56.332Z,0.90
2022-09-06T19:19:26.450Z,0.90
2022-09-06T19:21:55.071Z,0.70
2022-09-06T19:24:24.630Z,0.73
2022-09-06T19:26:55.234Z,0.90
2022-09-06T19:29:23.935Z,0.90
2022-09-06T19:31:53.033Z,0.80
2022-09-06T19:34:22.076Z,0.70
2022-09-06T19:36:55.253Z,1.00
2022-09-06T19:39:31.126Z,1.00
2022-09-06T19:42:02.291Z,0.85
2022-09-06T19:44:30.893Z,1.00
2022-09-06T19:46:59.998Z,0.90
2022-09-06T19:49:30.339Z,0.85
2022-09-06T19:52:00.245Z,0.80
2022-09-06T19:54:29.223Z,0.68
2022-09-06T19:56:57.983Z,0.80
2022-09-06T19:59:26.654Z,0.80
2022-09-06T20:01:55.259Z,0.95
2022-09-06T20:04:23.994Z,0.75
2022-09-06T20:06:52.567Z,0.98
2022-09-06T20:09:22.633Z,0.90
2022-09-06T20:11:51.384Z,1.00
2022-09-06T20:14:20.057Z,1.00
2022-09-06T20:16:48.696Z,1.20
2022-09-06T20:19:17.589Z,1.20
2022-09-06T20:21:46.182Z,1.08
2022-09-06T20:24:15.619Z,1.17
2022-09-06T20:26:45.530Z,0.88
2022-09-06T20:29:14.130Z,0.98
2022-09-06T20:31:42.939Z,0.80
2022-09-06T20:34:15.942Z,0.90
2022-09-06T20:36:44.536Z,0.90
2022-09-06T20:39:13.138Z,0.80
2022-09-06T20:41:41.717Z,0.90
2022-09-06T20:44:11.674Z,0.90
2022-09-06T20:46:40.274Z,0.60
2022-09-06T20:49:09.325Z,0.80
2022-09-06T20:51:40.338Z,0.70
2022-09-06T20:54:09.210Z,0.63
2022-09-06T20:56:40.139Z,0.60
2022-09-06T20:59:11.994Z,0.65
2022-09-06T21:01:43.020Z,0.90
2022-09-06T21:04:12.838Z,0.70
2022-09-06T21:06:42.314Z,0.80
2022-09-06T21:09:12.989Z,0.70
2022-09-06T21:11:41.916Z,0.70
2022-09-06T21:14:12.597Z,0.75
2022-09-06T21:16:41.950Z,0.80
2022-09-06T21:19:12.233Z,0.95
2022-09-06T21:21:41.190Z,0.77
2022-09-06T21:24:11.092Z,0.77
2022-09-06T21:26:40.954Z,0.82
2022-09-06T21:29:11.519Z,0.70
2022-09-06T21:31:40.180Z,0.67
2022-09-06T21:34:15.574Z,0.70
2022-09-06T21:36:45.401Z,0.60
2022-09-06T21:39:14.288Z,0.60
2022-09-06T21:41:44.469Z,0.70
2022-09-06T21:44:14.886Z,0.65
2022-09-06T21:46:43.580Z,0.80
2022-09-06T21:49:14.209Z,0.60
2022-09-06T21:51:43.569Z,0.57
2022-09-06T21:54:12.294Z,0.70
2022-09-06T21:56:41.413Z,0.63
2022-09-06T21:59:10.957Z,0.60
2022-09-06T22:01:44.915Z,0.73
2022-09-06T22:04:14.025Z,0.60
2022-09-06T22:06:42.605Z,0.40
2022-09-06T22:09:13.166Z,0.60
2022-09-06T22:11:43.946Z,0.50
2022-09-06T22:14:14.055Z,0.63
2022-09-06T22:16:44.507Z,0.60
2022-09-06T22:19:13.584Z,0.70
2022-09-06T22:21:42.143Z,0.70
2022-09-06T22:24:12.654Z,0.43
2022-09-06T22:26:42.375Z,0.50
2022-09-06T22:29:13.535Z,0.50
2022-09-06T22:31:44.039Z,0.50
2022-09-06T22:34:12.695Z,0.50
2022-09-06T22:36:41.779Z,0.60
2022-09-06T22:39:10.836Z,0.40
2022-09-06T22:41:39.518Z,0.50
2022-09-06T22:44:08.355Z,0.30
2022-09-06T22:46:38.333Z,0.40
2022-09-06T22:49:08.413Z,0.40
2022-09-06T22:51:36.971Z,0.50
2022-09-06T22:54:06.710Z,0.30
2022-09-06T22:56:35.750Z,0.50
2022-09-06T22:59:04.672Z,0.50
2022-09-06T23:01:38.769Z,0.50
2022-09-06T23:04:09.489Z,0.50
2022-09-06T23:06:38.516Z,0.60
2022-09-06T23:09:07.366Z,0.40
2022-09-06T23:11:35.983Z,0.40
2022-09-06T23:14:05.033Z,0.52
2022-09-06T23:16:33.798Z,0.60
2022-09-06T23:19:02.447Z,0.50
2022-09-06T23:21:32.903Z,0.50
2022-09-06T23:24:01.493Z,0.28
2022-09-06T23:26:31.757Z,0.98
2022-09-06T23:29:00.439Z,1.40
2022-09-06T23:31:32.509Z,1.40
2022-09-06T23:34:02.458Z,0.90
2022-09-06T23:36:32.668Z,0.68
2022-09-06T23:39:02.431Z,0.50
2022-09-06T23:41:31.159Z,0.60
2022-09-06T23:43:59.822Z,0.75
2022-09-06T23:46:28.697Z,0.70
2022-09-06T23:48:57.344Z,0.73
2022-09-06T23:51:25.684Z,0.40
2022-09-06T23:53:55.714Z,0.50
2022-09-06T23:56:24.373Z,0.60
2022-09-06T23:58:52.983Z,0.50
